Terminal Aerodrome Forecast
Issued by NWS Los Angeles, CA

Home | Current Version | Previous Version | Text Only | Print | Product List | Glossary On
Versions: 1 2 3 4 5 6 7 8 9 10 11 12 13 14 15 16 17 18 19 20 21 22 23 24
000
FTUS46 KLOX 241740
TAFSMX
TAF
KSMX 241740Z 2418/2518 27003KT 6SM HZ OVC012
     FM242000 27011KT P6SM OVC020
     FM242300 28012KT P6SM OVC035
     FM250300 30008KT P6SM OVC030
     FM250800 VRB03KT P6SM VCSH SCT015 OVC025
     FM251500 VRB03KT P6SM VCSH BKN008 OVC015=

USA.gov is the U.S. government's official web portal to all federal, state and local government web resources and services.